Time;durP1;ratioP1;P1;durP2;ratioP2;P2;SDS_P1;SDS_P2;PMS_P1;PMS_P2;Temp;Humidity;BMP_temperature;BMP_pressure;BME280_temperature;BME280_humidity;BME280_pressure;Samples;Min_cycle;Max_cycle;Signal;HPM_P1;HPM_P2
2023/12/06 00:00:34;;;;;;;2.00;1.90;;;;;;;8.91;58.63;98083.78;8359711;23;20747;-74
2023/12/06 00:03:56;;;;;;;2.17;1.80;;;;;;;8.89;58.77;98083.16;8360797;23;20356;-74
2023/12/06 00:07:19;;;;;;;2.10;2.00;;;;;;;9.15;58.06;98084.69;8361831;23;20267;-74
2023/12/06 00:10:40;;;;;;;1.90;1.80;;;;;;;9.45;57.90;98072.34;8361201;23;20685;-74
2023/12/06 00:14:02;;;;;;;1.93;1.83;;;;;;;8.85;58.99;98087.31;8361590;23;20265;-74
2023/12/06 00:17:23;;;;;;;2.00;1.90;;;;;;;8.63;59.33;98092.13;8360327;23;20278;-76
2023/12/06 00:20:45;;;;;;;1.60;1.60;;;;;;;9.24;58.74;98087.97;8358989;23;20340;-77
2023/12/06 00:24:08;;;;;;;1.93;1.90;;;;;;;8.66;59.08;98082.81;8360628;23;20297;-76
2023/12/06 00:27:29;;;;;;;2.10;1.90;;;;;;;8.36;60.62;98085.13;8361778;23;20173;-76
2023/12/06 00:30:51;;;;;;;1.70;1.70;;;;;;;8.42;60.86;98086.97;8359387;23;20290;-77
2023/12/06 00:34:12;;;;;;;1.60;1.60;;;;;;;8.86;59.32;98097.84;8361771;23;20550;-76
2023/12/06 00:37:34;;;;;;;1.90;1.80;;;;;;;9.09;58.96;98095.50;8360959;23;20188;-76
2023/12/06 00:40:57;;;;;;;1.83;1.80;;;;;;;9.11;58.52;98091.53;8360097;23;20747;-74
2023/12/06 00:44:18;;;;;;;1.70;1.70;;;;;;;9.19;57.83;98085.94;8362226;23;20339;-74
2023/12/06 00:47:40;;;;;;;1.50;1.50;;;;;;;8.89;58.09;98099.28;8362935;23;20263;-74
2023/12/06 00:51:01;;;;;;;1.60;1.60;;;;;;;8.65;58.86;98086.50;8362720;23;20283;-74
2023/12/06 00:54:23;;;;;;;1.80;1.70;;;;;;;9.02;58.54;98103.59;8362776;23;20510;-74
2023/12/06 00:57:46;;;;;;;1.60;1.60;;;;;;;9.53;56.88;98096.31;8361843;23;20219;-77
2023/12/06 01:01:07;;;;;;;1.87;1.87;;;;;;;9.39;57.11;98094.72;8361394;23;20259;-74
2023/12/06 01:04:29;;;;;;;1.90;1.80;;;;;;;9.34;57.28;98109.88;8362666;23;20211;-75
2023/12/06 01:07:50;;;;;;;2.10;2.00;;;;;;;9.47;56.61;98118.72;8363819;23;20576;-74
2023/12/06 01:11:12;;;;;;;1.70;1.60;;;;;;;9.16;57.77;98121.31;8362987;23;20647;-74
2023/12/06 01:14:34;;;;;;;1.87;1.77;;;;;;;9.38;57.46;98127.22;8362877;23;20261;-74
2023/12/06 01:17:56;;;;;;;1.90;1.80;;;;;;;9.41;56.96;98126.81;8361651;23;20216;-74
2023/12/06 01:21:17;;;;;;;2.03;1.70;;;;;;;9.65;55.93;98121.50;8361301;23;20248;-75
2023/12/06 01:24:39;;;;;;;1.87;1.77;;;;;;;9.88;55.46;98132.56;8361957;23;20237;-76
2023/12/06 01:28:00;;;;;;;1.70;1.60;;;;;;;9.72;56.14;98130.38;8362423;23;20249;-75
2023/12/06 01:31:23;;;;;;;1.80;1.70;;;;;;;9.93;55.54;98131.88;8361359;23;20263;-74
2023/12/06 01:34:45;;;;;;;1.97;1.87;;;;;;;9.54;56.05;98138.31;8363343;23;20274;-76
2023/12/06 01:38:06;;;;;;;1.60;1.60;;;;;;;9.30;57.66;98143.59;8360797;23;20283;-77
2023/12/06 01:41:28;;;;;;;1.80;1.70;;;;;;;9.60;56.27;98156.31;8360811;23;20267;-76
2023/12/06 01:44:49;;;;;;;2.00;1.90;;;;;;;9.24;57.95;98136.38;8361600;23;20347;-75
2023/12/06 01:48:13;;;;;;;1.63;1.63;;;;;;;9.07;58.78;98156.72;8361636;23;20233;-75
2023/12/06 01:51:35;;;;;;;1.60;1.60;;;;;;;9.42;57.84;98155.34;8361370;23;20284;-75
2023/12/06 01:54:58;;;;;;;1.90;1.80;;;;;;;9.57;57.32;98150.53;8361224;23;20181;-75
2023/12/06 01:58:20;;;;;;;1.70;1.70;;;;;;;9.23;57.95;98156.25;8360847;23;20652;-75
2023/12/06 02:01:41;;;;;;;1.73;1.73;;;;;;;9.65;57.39;98161.03;8362745;23;20280;-73
2023/12/06 02:05:05;;;;;;;1.90;1.80;;;;;;;9.48;58.00;98162.56;8362900;23;20341;-73
2023/12/06 02:08:26;;;;;;;2.10;2.00;;;;;;;9.28;58.05;98164.53;8361866;23;20270;-73
2023/12/06 02:11:49;;;;;;;1.80;1.80;;;;;;;9.43;57.85;98148.94;8361777;23;20225;-74
2023/12/06 02:15:11;;;;;;;2.80;2.60;;;;;;;9.35;58.54;98163.47;8361889;23;20179;-74
2023/12/06 02:18:33;;;;;;;1.97;1.87;;;;;;;9.79;57.41;98168.84;8360561;23;20637;-74
2023/12/06 02:21:56;;;;;;;2.00;1.90;;;;;;;9.72;57.35;98168.03;8360520;23;20299;-74
2023/12/06 02:25:20;;;;;;;2.00;1.80;;;;;;;9.34;58.08;98166.34;8361184;23;20728;-74
2023/12/06 02:28:41;;;;;;;1.70;1.70;;;;;;;9.85;57.22;98169.81;8361549;23;20326;-74
2023/12/06 02:32:03;;;;;;;1.70;1.70;;;;;;;9.95;57.04;98178.25;8361870;23;20291;-74
2023/12/06 02:35:27;;;;;;;1.70;1.70;;;;;;;9.43;57.97;98157.00;8362242;23;20660;-74
2023/12/06 02:38:49;;;;;;;1.90;1.80;;;;;;;9.53;57.94;98166.28;8360617;23;20215;-75
2023/12/06 02:42:12;;;;;;;1.90;1.80;;;;;;;9.04;59.18;98165.22;8360675;23;20317;-74
2023/12/06 02:45:33;;;;;;;2.40;2.20;;;;;;;9.53;58.27;98168.97;8362822;23;20241;-74
2023/12/06 02:48:56;;;;;;;1.90;1.80;;;;;;;9.56;58.00;98155.06;8362463;23;20186;-74
2023/12/06 02:52:17;;;;;;;1.80;1.70;;;;;;;9.96;57.31;98159.19;8361859;23;20187;-74
2023/12/06 02:55:39;;;;;;;1.70;1.70;;;;;;;9.82;56.79;98154.97;8361290;23;20213;-73
2023/12/06 02:59:02;;;;;;;1.73;1.73;;;;;;;10.05;56.58;98157.91;8360247;23;20317;-73
2023/12/06 03:02:23;;;;;;;1.80;1.80;;;;;;;9.99;56.81;98144.47;8362783;23;20273;-73
2023/12/06 03:05:45;;;;;;;2.10;2.00;;;;;;;9.77;56.43;98160.16;8362823;23;20666;-73
2023/12/06 03:09:06;;;;;;;2.07;1.77;;;;;;;9.63;56.94;98147.78;8360826;23;20268;-73
2023/12/06 03:12:28;;;;;;;1.60;1.60;;;;;;;9.53;57.63;98160.06;8362279;23;20183;-73
2023/12/06 03:15:51;;;;;;;1.60;1.60;;;;;;;9.48;57.67;98165.25;8362668;23;20319;-74
2023/12/06 03:19:12;;;;;;;1.80;1.80;;;;;;;9.59;57.76;98141.22;8361994;23;20340;-73
2023/12/06 03:22:34;;;;;;;1.70;1.70;;;;;;;10.02;55.86;98154.81;8361591;23;20974;-74
2023/12/06 03:25:55;;;;;;;1.60;1.60;;;;;;;10.09;55.86;98151.06;8362213;23;20227;-75
2023/12/06 03:29:17;;;;;;;1.73;1.63;;;;;;;9.92;56.13;98163.38;8361852;23;20295;-74
2023/12/06 03:32:39;;;;;;;1.97;1.87;;;;;;;9.73;56.30;98163.47;8362781;23;20278;-74
2023/12/06 03:36:01;;;;;;;2.00;1.90;;;;;;;9.79;56.76;98163.44;8362412;23;20645;-74
2023/12/06 03:39:22;;;;;;;1.77;1.70;;;;;;;9.74;56.36;98167.84;8361507;23;20291;-74
2023/12/06 03:42:44;;;;;;;2.30;2.20;;;;;;;9.96;56.23;98152.97;8362495;23;20651;-75
2023/12/06 03:46:08;;;;;;;1.97;1.87;;;;;;;8.93;57.65;98091.41;8361604;23;20249;-75
2023/12/06 03:49:31;;;;;;;1.60;1.60;;;;;;;10.12;55.90;98164.13;8361505;23;20291;-76
2023/12/06 03:52:52;;;;;;;1.83;1.73;;;;;;;9.54;56.63;98162.53;8361742;23;20187;-76
2023/12/06 03:56:14;;;;;;;1.83;1.80;;;;;;;9.53;56.91;98158.22;8362121;23;20275;-76
2023/12/06 03:59:35;;;;;;;1.50;1.50;;;;;;;9.53;57.52;98170.81;8360668;23;20343;-76
2023/12/06 04:02:57;;;;;;;1.63;1.60;;;;;;;9.60;56.55;98168.94;8362021;23;20291;-76
2023/12/06 04:06:20;;;;;;;2.60;1.80;;;;;;;9.69;57.25;98168.47;8361629;23;20208;-75
2023/12/06 04:09:41;;;;;;;2.10;2.00;;;;;;;10.14;55.83;98158.47;8361423;23;20289;-76
2023/12/06 04:13:04;;;;;;;2.00;1.90;;;;;;;9.95;55.60;98149.47;8361957;23;20604;-76
2023/12/06 04:16:25;;;;;;;1.63;1.63;;;;;;;9.50;57.40;98165.88;8362542;23;20192;-76
2023/12/06 04:19:47;;;;;;;1.80;1.80;;;;;;;9.84;56.42;98174.41;8361176;23;20584;-76
2023/12/06 04:23:11;;;;;;;1.87;1.77;;;;;;;9.59;56.79;98178.03;8360004;23;20205;-76
2023/12/06 04:26:32;;;;;;;1.80;1.70;;;;;;;9.58;56.51;98173.72;8362807;23;20202;-76
2023/12/06 04:29:54;;;;;;;1.90;1.80;;;;;;;9.48;57.31;98181.41;8362137;23;20296;-76
2023/12/06 04:33:15;;;;;;;1.50;1.50;;;;;;;10.03;55.88;98183.41;8362744;23;20272;-76
2023/12/06 04:36:36;;;;;;;2.73;2.53;;;;;;;10.17;54.69;98174.22;8362806;23;20662;-76
2023/12/06 04:40:00;;;;;;;2.00;1.90;;;;;;;10.15;55.08;98187.91;8360727;23;20217;-76
2023/12/06 04:43:21;;;;;;;1.70;1.60;;;;;;;10.32;54.34;98190.88;8361947;23;20680;-75
2023/12/06 04:46:43;;;;;;;1.60;1.60;;;;;;;10.06;54.76;98200.00;8363749;23;20233;-76
2023/12/06 04:50:05;;;;;;;1.60;1.60;;;;;;;9.82;55.90;98194.50;8362457;23;20280;-76
2023/12/06 04:53:27;;;;;;;1.90;1.73;;;;;;;9.53;56.09;98209.34;8362614;23;20229;-76
2023/12/06 04:56:49;;;;;;;1.40;1.40;;;;;;;9.57;56.73;98204.34;8362602;23;20299;-76
2023/12/06 05:00:12;;;;;;;1.40;1.40;;;;;;;9.84;55.85;98214.78;8360817;23;20771;-76
2023/12/06 05:03:34;;;;;;;1.60;1.50;;;;;;;9.97;55.24;98211.19;8362194;23;20214;-75
2023/12/06 05:06:55;;;;;;;1.30;1.30;;;;;;;9.79;55.66;98192.22;8363608;23;20328;-77
2023/12/06 05:10:17;;;;;;;1.27;1.27;;;;;;;9.45;56.35;98208.75;8361857;23;20344;-76
2023/12/06 05:13:40;;;;;;;1.50;1.43;;;;;;;9.37;56.67;98215.19;8363047;23;20258;-75
2023/12/06 05:17:01;;;;;;;1.53;1.53;;;;;;;9.34;57.08;98217.47;8361252;23;20271;-76
2023/12/06 05:20:23;;;;;;;1.53;1.53;;;;;;;9.57;56.29;98194.41;8359912;23;20281;-75
2023/12/06 05:23:44;;;;;;;1.47;1.47;;;;;;;9.52;56.12;98210.34;8360562;23;20292;-75
2023/12/06 05:27:06;;;;;;;1.40;1.40;;;;;;;9.50;56.46;98228.59;8362945;23;20262;-75
2023/12/06 05:30:29;;;;;;;1.80;1.70;;;;;;;9.76;56.27;98219.59;8362292;23;20337;-75
2023/12/06 05:33:50;;;;;;;1.40;1.40;;;;;;;10.15;55.01;98211.34;8362090;23;20213;-74
2023/12/06 05:37:12;;;;;;;1.50;1.50;;;;;;;10.19;54.56;98221.47;8362303;23;20239;-76
2023/12/06 05:40:33;;;;;;;1.60;1.50;;;;;;;10.15;54.70;98230.19;8360921;23;20263;-75
2023/12/06 05:43:55;;;;;;;1.57;1.57;;;;;;;10.03;54.87;98229.19;8361891;23;20613;-74
2023/12/06 05:47:18;;;;;;;1.80;1.70;;;;;;;9.82;56.00;98229.50;8363468;23;20239;-73
2023/12/06 05:50:39;;;;;;;1.70;1.70;;;;;;;9.89;55.09;98223.03;8362580;23;20286;-73
2023/12/06 05:54:01;;;;;;;1.70;1.70;;;;;;;10.09;54.97;98231.06;8362786;23;20613;-76
2023/12/06 05:57:22;;;;;;;1.50;1.50;;;;;;;10.15;54.69;98227.50;8361176;23;20271;-74
2023/12/06 06:00:43;;;;;;;1.60;1.50;;;;;;;9.95;55.70;98226.72;8360831;23;20690;-76
2023/12/06 06:04:06;;;;;;;1.63;1.53;;;;;;;9.55;55.81;98238.69;8362494;23;20353;-73
2023/12/06 06:07:28;;;;;;;1.57;1.57;;;;;;;9.94;55.93;98228.63;8362551;23;20660;-74
2023/12/06 06:10:49;;;;;;;1.60;1.50;;;;;;;9.96;55.11;98226.53;8361441;23;20249;-73
2023/12/06 06:14:11;;;;;;;1.53;1.53;;;;;;;9.74;55.86;98237.81;8357777;23;20226;-74
2023/12/06 06:17:32;;;;;;;2.87;2.67;;;;;;;9.72;56.63;98234.50;8354030;23;20274;-74
2023/12/06 06:20:55;;;;;;;2.30;1.80;;;;;;;9.60;56.49;98238.91;8361118;23;20257;-74
2023/12/06 06:24:17;;;;;;;1.93;1.83;;;;;;;9.59;56.91;98239.94;8360912;23;20595;-73
2023/12/06 06:27:38;;;;;;;1.90;1.80;;;;;;;9.70;56.03;98241.97;8361088;23;20330;-73
2023/12/06 06:31:00;;;;;;;1.80;1.70;;;;;;;10.00;55.86;98235.00;8360578;23;20311;-75
2023/12/06 06:34:21;;;;;;;2.00;1.90;;;;;;;9.85;56.10;98229.88;8358243;23;20648;-74
2023/12/06 06:37:44;;;;;;;1.80;1.70;;;;;;;9.58;56.46;98252.56;8361990;23;20202;-74
2023/12/06 06:41:06;;;;;;;1.80;1.70;;;;;;;9.73;56.62;98260.38;8359500;23;20354;-74
2023/12/06 06:44:29;;;;;;;1.80;1.70;;;;;;;9.61;56.90;98251.31;8361037;23;20650;-74
2023/12/06 06:47:51;;;;;;;2.10;2.00;;;;;;;9.78;56.54;98263.25;8359957;23;20188;-75
2023/12/06 06:51:12;;;;;;;2.30;2.20;;;;;;;9.81;56.82;98266.34;8359474;23;20283;-74
2023/12/06 06:54:35;;;;;;;2.10;2.00;;;;;;;9.95;56.09;98265.28;8361253;23;20239;-74
2023/12/06 06:57:58;;;;;;;2.20;2.10;;;;;;;9.90;56.09;98269.63;8361629;23;20270;-74
2023/12/06 07:01:20;;;;;;;2.03;1.83;;;;;;;9.71;56.66;98274.06;8361350;23;20660;-75
2023/12/06 07:04:42;;;;;;;1.90;1.80;;;;;;;9.85;56.48;98277.50;8361506;23;20290;-75
2023/12/06 07:08:04;;;;;;;1.80;1.70;;;;;;;9.77;56.45;98289.38;8361777;23;20184;-74
2023/12/06 07:11:28;;;;;;;3.13;2.37;;;;;;;9.71;56.79;98284.84;8360824;23;20323;-75
2023/12/06 07:14:50;;;;;;;1.87;1.77;;;;;;;9.74;56.50;98300.53;8361089;23;20192;-74
2023/12/06 07:18:11;;;;;;;2.00;1.90;;;;;;;9.62;56.80;98299.53;8360743;23;20625;-74
2023/12/06 07:21:32;;;;;;;2.10;2.00;;;;;;;9.62;56.47;98296.03;8360359;23;20248;-74
2023/12/06 07:24:54;;;;;;;2.60;2.40;;;;;;;9.18;58.40;98302.13;8360993;23;20339;-74
2023/12/06 07:28:18;;;;;;;1.90;1.80;;;;;;;9.68;56.96;98303.28;8360842;23;20221;-74
2023/12/06 07:31:40;;;;;;;1.90;1.80;;;;;;;9.62;57.43;98306.81;8361716;23;20210;-74
2023/12/06 07:35:03;;;;;;;2.00;1.90;;;;;;;9.65;56.94;98319.84;8361126;23;20655;-74
2023/12/06 07:38:25;;;;;;;1.60;1.60;;;;;;;9.83;56.43;98310.06;8361121;23;20638;-74
2023/12/06 07:41:47;;;;;;;1.83;1.73;;;;;;;9.30;57.84;98313.91;8361087;23;20214;-74
2023/12/06 07:45:11;;;;;;;1.80;1.80;;;;;;;9.50;57.66;98327.34;8361965;23;20312;-74
2023/12/06 07:48:34;;;;;;;2.10;2.00;;;;;;;9.52;57.55;98328.75;8361123;23;20657;-74
2023/12/06 07:51:56;;;;;;;2.00;1.90;;;;;;;9.57;57.15;98322.75;8361294;23;20202;-74
2023/12/06 07:55:18;;;;;;;3.30;3.00;;;;;;;9.23;58.16;98337.31;8361893;23;20588;-73
2023/12/06 07:58:40;;;;;;;2.00;1.90;;;;;;;9.69;57.05;98339.91;8360319;23;20188;-75
2023/12/06 08:02:02;;;;;;;1.90;1.80;;;;;;;9.50;57.14;98344.28;8360390;23;20252;-75
2023/12/06 08:05:24;;;;;;;2.20;2.00;;;;;;;9.95;56.29;98324.50;8358576;23;20279;-75
2023/12/06 08:08:50;;;;;;;2.27;2.00;;;;;;;9.52;56.55;98339.50;8360228;23;20240;-76
2023/12/06 08:12:12;;;;;;;2.40;2.20;;;;;;;9.61;56.93;98326.66;8375058;23;20204;-76
2023/12/06 08:15:33;;;;;;;2.00;1.90;;;;;;;9.17;58.41;98337.28;8360893;23;20277;-75
2023/12/06 08:18:56;;;;;;;2.47;2.33;;;;;;;9.48;57.45;98359.81;8356246;23;20183;-76
2023/12/06 08:22:18;;;;;;;2.17;2.07;;;;;;;9.68;56.89;98359.81;8360906;23;20212;-75
2023/12/06 08:25:41;;;;;;;4.30;3.40;;;;;;;9.35;57.86;98369.75;8360824;23;20251;-74
2023/12/06 08:29:03;;;;;;;3.07;2.77;;;;;;;9.39;58.15;98384.47;8359117;23;20665;-74
2023/12/06 08:32:24;;;;;;;2.70;2.23;;;;;;;9.54;57.61;98369.75;8360979;23;20637;-73
2023/12/06 08:35:47;;;;;;;3.40;3.10;;;;;;;9.69;57.45;98375.72;8359512;23;20712;-74
2023/12/06 08:39:09;;;;;;;5.97;4.83;;;;;;;9.85;56.90;98385.22;8357250;23;20185;-74
2023/12/06 08:42:30;;;;;;;2.67;2.47;;;;;;;9.71;57.06;98380.91;8360454;23;20525;-74
2023/12/06 08:45:53;;;;;;;3.27;2.60;;;;;;;10.24;56.20;98395.91;8358855;23;20208;-73
2023/12/06 08:49:14;;;;;;;3.30;3.00;;;;;;;10.25;55.72;98400.25;8357973;23;20257;-73
2023/12/06 08:52:37;;;;;;;3.90;3.53;;;;;;;10.49;55.11;98394.13;8372539;23;20557;-75
2023/12/06 08:55:59;;;;;;;4.57;3.93;;;;;;;10.07;55.55;98400.09;8361806;23;20220;-75
2023/12/06 08:59:20;;;;;;;4.53;4.13;;;;;;;9.60;56.48;98409.28;8361018;23;20675;-75
2023/12/06 09:02:43;;;;;;;4.80;4.40;;;;;;;9.72;55.66;98399.53;8360475;23;20193;-75
2023/12/06 09:06:05;;;;;;;6.00;5.50;;;;;;;9.31;56.72;98411.56;8360824;23;20207;-75
2023/12/06 09:09:27;;;;;;;6.70;6.10;;;;;;;9.27;57.13;98431.84;8356184;23;20358;-76
2023/12/06 09:12:50;;;;;;;11.00;7.13;;;;;;;9.18;56.80;98436.59;8361673;23;20238;-73
2023/12/06 09:16:12;;;;;;;8.73;7.83;;;;;;;9.40;56.28;98424.59;8361938;23;20270;-75
2023/12/06 09:19:33;;;;;;;8.63;7.17;;;;;;;9.00;57.02;98438.22;8360568;23;20204;-76
2023/12/06 09:22:55;;;;;;;9.73;7.20;;;;;;;9.03;57.13;98452.06;8360764;23;20194;-77
2023/12/06 09:26:19;;;;;;;8.20;7.40;;;;;;;9.04;57.27;98447.53;8361636;23;20211;-73
2023/12/06 09:29:40;;;;;;;7.83;6.80;;;;;;;9.25;56.79;98447.34;8360910;23;20284;-74
2023/12/06 09:33:02;;;;;;;9.33;7.70;;;;;;;9.23;56.60;98465.56;8358347;23;20258;-77
2023/12/06 09:36:23;;;;;;;9.10;8.10;;;;;;;8.96;57.29;98463.84;8361476;23;20287;-76
2023/12/06 09:39:45;;;;;;;9.90;8.90;;;;;;;8.61;58.41;98467.66;8357960;23;20333;-75
2023/12/06 09:43:08;;;;;;;10.13;8.33;;;;;;;9.04;57.57;98471.75;8362042;23;20190;-75
2023/12/06 09:46:30;;;;;;;10.30;8.90;;;;;;;8.99;57.20;98474.22;8361386;23;20288;-77
2023/12/06 09:49:52;;;;;;;9.80;8.80;;;;;;;8.82;57.54;98469.38;8360420;23;20215;-76
2023/12/06 09:53:14;;;;;;;10.83;9.70;;;;;;;8.94;57.65;98471.28;8362042;23;20233;-76
2023/12/06 09:56:35;;;;;;;10.60;9.60;;;;;;;9.32;56.25;98481.31;8361250;23;20266;-75
2023/12/06 09:59:58;;;;;;;9.53;8.60;;;;;;;9.43;55.69;98472.63;8359629;23;20231;-76
2023/12/06 10:03:22;;;;;;;9.63;8.63;;;;;;;9.62;55.69;98479.88;8361974;23;20238;-76
2023/12/06 10:06:43;;;;;;;10.30;9.20;;;;;;;9.42;55.78;98479.03;8361906;23;20332;-75
2023/12/06 10:10:13;;;;;;;10.27;9.20;;;;;;;9.34;55.63;98492.69;8360862;23;20241;-75
2023/12/06 10:13:35;;;;;;;10.73;8.90;;;;;;;8.91;56.49;98487.81;8358469;23;20771;-76
2023/12/06 10:16:58;;;;;;;10.33;9.33;;;;;;;8.62;57.23;98498.91;8359237;23;20207;-76
2023/12/06 10:20:22;;;;;;;11.67;9.67;;;;;;;9.09;56.30;98491.59;8360824;23;20212;-75
2023/12/06 10:23:52;;;;;;;8.90;8.10;;;;;;;8.86;56.23;98492.16;8362464;23;20633;-74
2023/12/06 10:27:14;;;;;;;11.80;9.67;;;;;;;9.39;55.00;98495.59;8359293;23;20279;-75
2023/12/06 10:30:36;;;;;;;10.17;8.93;;;;;;;9.36;55.40;98504.09;8355700;23;20241;-74
2023/12/06 10:33:58;;;;;;;9.03;8.00;;;;;;;9.01;55.69;98503.59;8354952;23;20250;-76
2023/12/06 10:37:21;;;;;;;8.53;7.63;;;;;;;9.60;54.55;98505.34;8360553;23;20196;-74
2023/12/06 10:40:43;;;;;;;9.83;8.83;;;;;;;9.61;54.61;98485.47;8358333;23;20294;-76
2023/12/06 10:44:05;;;;;;;9.10;8.20;;;;;;;9.30;55.54;98504.06;8362854;23;20189;-76
2023/12/06 10:47:27;;;;;;;9.37;8.47;;;;;;;9.53;54.95;98508.03;8358008;23;20192;-80
2023/12/06 10:50:50;;;;;;;9.90;8.93;;;;;;;9.51;55.49;98495.81;8359452;23;20709;-77
2023/12/06 10:54:12;;;;;;;11.80;9.80;;;;;;;9.36;55.96;98493.31;8364404;23;20220;-79
2023/12/06 10:57:34;;;;;;;11.17;9.30;;;;;;;9.50;56.19;98470.75;8363369;23;20550;-79
2023/12/06 11:00:58;;;;;;;9.63;8.63;;;;;;;9.18;55.45;98490.41;8363122;23;20744;-78
2023/12/06 11:04:21;;;;;;;9.63;8.63;;;;;;;9.02;55.87;98474.63;8362532;23;20192;-79
2023/12/06 11:07:55;;;;;;;9.13;8.00;;;;;;;9.39;55.31;98497.47;8363115;23;20235;-80
2023/12/06 11:11:31;;;;;;;9.63;8.73;;;;;;;9.56;54.76;98504.09;8362315;23;20297;-77
2023/12/06 11:15:12;;;;;;;8.67;7.73;;;;;;;9.38;54.93;98504.69;8362672;23;20620;-77
2023/12/06 11:18:39;;;;;;;8.77;7.87;;;;;;;9.37;54.65;98511.13;8360879;23;20246;-77
2023/12/06 11:22:02;;;;;;;10.03;8.83;;;;;;;9.25;55.13;98507.38;8361981;23;20293;-78
2023/12/06 11:25:25;;;;;;;8.57;7.77;;;;;;;9.71;54.95;98508.25;8362156;23;20209;-77
2023/12/06 11:28:47;;;;;;;11.47;9.27;;;;;;;9.51;54.87;98512.78;8360575;23;20230;-78
2023/12/06 11:32:11;;;;;;;9.33;8.43;;;;;;;9.76;54.21;98511.16;8374489;23;20754;-77
2023/12/06 11:35:42;;;;;;;8.67;7.87;;;;;;;9.48;55.35;98523.97;8362294;23;20268;-77
2023/12/06 11:39:14;;;;;;;9.73;8.30;;;;;;;9.52;54.88;98524.38;8374545;23;20242;-76
2023/12/06 11:42:39;;;;;;;8.20;7.40;;;;;;;9.05;55.18;98519.91;8359471;23;20168;-76
2023/12/06 11:46:04;;;;;;;8.53;7.40;;;;;;;9.27;54.91;98528.69;8360710;23;20643;-74
2023/12/06 11:49:27;;;;;;;8.33;7.43;;;;;;;9.51;54.51;98533.50;8360916;23;20197;-75
2023/12/06 11:52:50;;;;;;;8.60;7.40;;;;;;;9.11;55.49;98542.50;8361493;23;20191;-75
2023/12/06 11:56:11;;;;;;;8.27;7.47;;;;;;;9.63;54.22;98543.44;8359366;23;20185;-75
2023/12/06 11:59:35;;;;;;;9.20;7.53;;;;;;;9.55;54.20;98548.19;8359251;23;20249;-76
2023/12/06 12:02:58;;;;;;;9.17;7.93;;;;;;;9.43;54.45;98544.44;8359076;23;20215;-76
2023/12/06 12:06:20;;;;;;;8.83;8.00;;;;;;;9.53;54.26;98550.25;8358946;23;20196;-77
2023/12/06 12:09:44;;;;;;;7.63;6.93;;;;;;;9.55;54.01;98549.03;8355850;23;20895;-75
2023/12/06 12:13:05;;;;;;;8.73;7.93;;;;;;;9.71;53.55;98542.41;8358168;23;20216;-75
2023/12/06 12:16:28;;;;;;;8.43;7.63;;;;;;;9.45;54.74;98553.97;8351817;23;20192;-76
2023/12/06 12:19:53;;;;;;;9.27;8.30;;;;;;;9.35;55.03;98555.41;8355066;23;20403;-75
2023/12/06 12:23:14;;;;;;;8.57;7.70;;;;;;;9.69;54.05;98558.75;8360219;23;20243;-77
2023/12/06 12:26:35;;;;;;;9.97;7.90;;;;;;;9.22;54.59;98563.44;8353246;23;20290;-76
2023/12/06 12:29:57;;;;;;;8.13;7.33;;;;;;;9.27;55.22;98566.34;8357537;23;20533;-75
2023/12/06 12:33:20;;;;;;;9.13;8.13;;;;;;;9.50;54.04;98546.09;8360833;23;20177;-76
2023/12/06 12:36:42;;;;;;;11.53;8.33;;;;;;;9.51;54.00;98566.59;8360064;23;20214;-77
2023/12/06 12:40:04;;;;;;;15.10;8.23;;;;;;;9.65;54.20;98562.06;8356939;23;20276;-76
2023/12/06 12:43:26;;;;;;;8.83;7.93;;;;;;;9.69;54.22;98545.28;8361914;23;20525;-77
2023/12/06 12:46:47;;;;;;;10.43;8.17;;;;;;;9.72;53.80;98554.81;8361735;23;20307;-76
2023/12/06 12:50:11;;;;;;;8.10;7.33;;;;;;;9.89;53.61;98558.78;8371702;23;20629;-77
2023/12/06 12:53:32;;;;;;;8.40;7.60;;;;;;;9.66;53.57;98575.34;8360459;23;20267;-75
2023/12/06 12:56:54;;;;;;;9.03;8.13;;;;;;;9.91;53.28;98575.53;8361306;23;20196;-77
2023/12/06 13:00:19;;;;;;;9.03;8.13;;;;;;;9.69;53.23;98566.84;8361367;23;20242;-75
2023/12/06 13:03:41;;;;;;;8.57;7.70;;;;;;;9.84;52.59;98572.88;8363672;23;20644;-76
2023/12/06 13:07:04;;;;;;;9.07;8.13;;;;;;;9.49;53.81;98575.91;8362975;23;20245;-74
2023/12/06 13:10:28;;;;;;;9.00;8.10;;;;;;;9.84;52.76;98572.88;8360118;23;20236;-75
2023/12/06 13:13:50;;;;;;;8.43;7.63;;;;;;;9.75;53.20;98573.28;8362954;23;20227;-75
2023/12/06 13:17:12;;;;;;;9.67;8.30;;;;;;;9.73;53.38;98586.94;8362472;23;20553;-74
2023/12/06 13:20:33;;;;;;;10.90;8.53;;;;;;;9.52;53.93;98579.00;8361582;23;20754;-77
2023/12/06 13:23:56;;;;;;;9.77;8.40;;;;;;;9.57;53.91;98592.69;8362126;23;20216;-75
2023/12/06 13:27:18;;;;;;;10.57;7.87;;;;;;;9.46;54.03;98595.97;8362520;23;20200;-77
2023/12/06 13:30:39;;;;;;;10.50;7.43;;;;;;;9.03;55.37;98594.59;8362222;23;20207;-75
2023/12/06 13:34:01;;;;;;;8.27;7.47;;;;;;;9.13;54.71;98599.59;8361619;23;20227;-75
2023/12/06 13:37:22;;;;;;;10.30;8.60;;;;;;;9.39;54.37;98591.63;8360816;23;20196;-74
2023/12/06 13:40:45;;;;;;;13.83;9.40;;;;;;;9.53;53.97;98604.06;8359745;23;20277;-76
2023/12/06 13:44:07;;;;;;;8.97;7.87;;;;;;;9.31;54.53;98606.09;8363280;23;20191;-74
2023/12/06 13:47:28;;;;;;;8.43;7.27;;;;;;;9.27;53.96;98604.81;8363011;23;20339;-74
2023/12/06 13:50:50;;;;;;;9.73;8.50;;;;;;;9.29;53.93;98608.16;8360312;23;20229;-75
2023/12/06 13:54:13;;;;;;;9.10;7.23;;;;;;;9.45;54.28;98607.78;8362362;23;20220;-76
2023/12/06 13:57:36;;;;;;;8.13;7.33;;;;;;;9.57;53.48;98606.16;8360774;23;20192;-74
2023/12/06 14:00:57;;;;;;;9.63;7.30;;;;;;;9.46;53.13;98606.75;8362909;23;20701;-76
2023/12/06 14:04:19;;;;;;;7.47;6.73;;;;;;;9.10;54.34;98624.22;8362241;23;20230;-74
2023/12/06 14:07:40;;;;;;;8.13;7.00;;;;;;;9.28;53.80;98619.13;8355596;23;20252;-74
2023/12/06 14:11:03;;;;;;;7.47;6.70;;;;;;;9.28;53.76;98630.69;8360536;23;20208;-74
2023/12/06 14:14:26;;;;;;;8.03;7.23;;;;;;;9.27;53.71;98628.22;8359893;23;20188;-75
2023/12/06 14:17:48;;;;;;;8.27;7.33;;;;;;;9.13;54.19;98625.69;8362274;23;20664;-75
2023/12/06 14:21:09;;;;;;;10.20;7.37;;;;;;;8.93;54.09;98620.19;8361034;23;20208;-74
2023/12/06 14:24:31;;;;;;;8.90;7.93;;;;;;;9.38;53.30;98622.22;8362647;23;20243;-74
2023/12/06 14:27:53;;;;;;;8.53;7.60;;;;;;;9.82;52.41;98638.72;8361568;23;20215;-75
2023/12/06 14:31:16;;;;;;;10.30;8.77;;;;;;;9.63;52.57;98636.81;8361086;23;20207;-76
2023/12/06 14:34:37;;;;;;;11.07;9.10;;;;;;;9.44;52.87;98642.94;8361010;23;20192;-74
2023/12/06 14:37:59;;;;;;;8.80;8.00;;;;;;;9.75;52.67;98643.28;8362829;23;20529;-74
2023/12/06 14:41:21;;;;;;;8.93;7.20;;;;;;;9.69;52.47;98649.47;8362111;23;20211;-75
2023/12/06 14:44:43;;;;;;;7.37;6.23;;;;;;;9.45;52.56;98650.84;8361576;23;20188;-74
2023/12/06 14:48:07;;;;;;;9.93;7.67;;;;;;;9.42;53.48;98656.63;8360121;23;20220;-74
2023/12/06 14:51:28;;;;;;;8.20;7.40;;;;;;;9.38;53.22;98654.53;8360292;23;20688;-77
2023/12/06 14:54:51;;;;;;;7.87;6.97;;;;;;;9.60;53.19;98643.44;8362786;23;20263;-77
2023/12/06 14:58:13;;;;;;;8.60;7.80;;;;;;;9.37;53.39;98653.72;8362618;23;20492;-77
2023/12/06 15:01:34;;;;;;;8.23;7.30;;;;;;;9.52;53.19;98672.41;8362280;23;20514;-77
2023/12/06 15:04:57;;;;;;;8.93;7.03;;;;;;;9.49;52.63;98676.31;8360981;23;20263;-77
2023/12/06 15:08:19;;;;;;;9.70;8.23;;;;;;;9.41;53.11;98673.81;8357231;23;20286;-78
2023/12/06 15:11:40;;;;;;;9.87;7.13;;;;;;;9.51;53.44;98679.63;8362610;23;20329;-78
2023/12/06 15:15:02;;;;;;;9.97;8.40;;;;;;;9.62;52.83;98678.25;8362206;23;20720;-76
2023/12/06 15:18:25;;;;;;;24.90;13.63;;;;;;;9.88;52.38;98687.22;8361774;23;20188;-76
2023/12/06 15:21:48;;;;;;;27.30;14.13;;;;;;;9.79;52.06;98691.13;8360793;23;20288;-77
2023/12/06 15:25:09;;;;;;;9.13;8.03;;;;;;;9.66;52.70;98695.63;8361086;23;20191;-78
2023/12/06 15:28:31;;;;;;;9.97;8.30;;;;;;;9.86;52.54;98707.31;8361402;23;20280;-77
2023/12/06 15:31:52;;;;;;;9.43;7.60;;;;;;;9.86;52.01;98705.41;8362902;23;20294;-78
2023/12/06 15:35:15;;;;;;;8.67;7.80;;;;;;;9.77;51.78;98705.81;8362635;23;20528;-75
2023/12/06 15:38:38;;;;;;;10.87;8.10;;;;;;;10.02;51.66;98701.53;8359115;23;20240;-75
2023/12/06 15:42:00;;;;;;;7.80;7.00;;;;;;;10.10;51.70;98712.16;8361295;23;20212;-77
2023/12/06 15:45:22;;;;;;;15.13;7.57;;;;;;;9.87;52.38;98712.47;8360678;23;20715;-77
2023/12/06 15:48:43;;;;;;;7.73;6.97;;;;;;;10.04;52.08;98712.97;8359286;23;20208;-78
2023/12/06 15:52:05;;;;;;;8.17;7.27;;;;;;;10.03;51.68;98720.22;8361429;23;20247;-76
2023/12/06 15:55:28;;;;;;;9.27;6.30;;;;;;;9.94;51.33;98713.34;8360401;23;20642;-78
2023/12/06 15:58:50;;;;;;;8.77;7.23;;;;;;;10.16;51.85;98722.13;8361287;23;20301;-81